createdAt,value
2023-03-10T00:03:46.042Z,85.11
2023-03-10T00:04:46.065Z,84.97
2023-03-10T00:05:46.059Z,85.48
2023-03-10T00:06:46.022Z,85.79
2023-03-10T00:07:46.000Z,85.31
2023-03-10T00:08:45.981Z,85.42
2023-03-10T00:09:45.973Z,84.46
2023-03-10T00:10:45.961Z,84.77
2023-03-10T00:11:45.962Z,85.28
2023-03-10T00:12:45.954Z,84.87
2023-03-10T00:13:45.930Z,84.87
2023-03-10T00:14:45.916Z,84.87
2023-03-10T00:15:45.976Z,84.56
2023-03-10T00:16:45.903Z,83.95
2023-03-10T00:17:45.892Z,83.91
2023-03-10T00:18:45.870Z,84.22
2023-03-10T00:19:45.857Z,83.70
2023-03-10T00:20:45.842Z,84.31
2023-03-10T00:21:45.850Z,84.22
2023-03-10T00:22:45.827Z,84.52
2023-03-10T00:23:45.820Z,84.01
2023-03-10T00:24:45.803Z,84.42
2023-03-10T00:25:45.792Z,84.63
2023-03-10T00:26:45.789Z,84.63
2023-03-10T00:27:45.777Z,84.72
2023-03-10T00:28:45.764Z,85.24
2023-03-10T00:29:45.754Z,85.38
2023-03-10T00:30:45.809Z,84.42
2023-03-10T00:31:45.744Z,84.83
2023-03-10T00:32:45.759Z,85.48
2023-03-10T00:33:45.705Z,84.01
2023-03-10T00:34:45.698Z,84.42
2023-03-10T00:35:45.717Z,85.38
2023-03-10T00:36:45.682Z,84.52
2023-03-10T00:37:45.669Z,84.63
2023-03-10T00:38:45.655Z,84.87
2023-03-10T00:39:45.647Z,85.14
2023-03-10T00:40:45.626Z,85.28
2023-03-10T00:41:45.631Z,85.28
2023-03-10T00:42:45.607Z,86.51
2023-03-10T00:43:45.597Z,85.28
2023-03-10T00:44:45.591Z,86.16
2023-03-10T00:45:45.583Z,85.64
2023-03-10T00:46:45.610Z,86.10
2023-03-10T00:47:45.559Z,86.61
2023-03-10T00:48:45.545Z,86.81
2023-03-10T00:49:45.534Z,86.81
2023-03-10T00:50:45.527Z,87.32
2023-03-10T00:51:45.535Z,88.45
2023-03-10T00:52:45.504Z,89.11
2023-03-10T00:53:45.492Z,88.39
2023-03-10T00:54:45.475Z,88.39
2023-03-10T00:55:45.465Z,88.84
2023-03-10T00:56:45.459Z,88.64
2023-03-10T00:57:45.462Z,88.74
2023-03-10T00:58:45.435Z,88.70
2023-03-10T00:59:50.278Z,89.00
2023-03-10T01:00:46.429Z,88.84
2023-03-10T01:01:45.519Z,89.15
2023-03-10T01:02:45.404Z,88.70
2023-03-10T01:03:45.389Z,90.64
2023-03-10T01:04:45.430Z,89.04
2023-03-10T01:05:45.368Z,88.74
2023-03-10T01:06:45.353Z,88.49
2023-03-10T01:07:45.361Z,87.57
2023-03-10T01:08:45.338Z,86.75
2023-03-10T01:09:45.332Z,88.39
2023-03-10T01:10:45.315Z,89.00
2023-03-10T01:11:45.317Z,88.18
2023-03-10T01:12:45.295Z,89.31
2023-03-10T01:13:45.277Z,88.29
2023-03-10T01:14:45.271Z,88.49
2023-03-10T01:15:45.303Z,88.08
2023-03-10T01:16:45.250Z,87.67
2023-03-10T01:17:45.262Z,87.37
2023-03-10T01:18:45.234Z,88.29
2023-03-10T01:19:45.210Z,87.88
2023-03-10T01:20:45.204Z,86.61
2023-03-10T01:21:45.197Z,87.84
2023-03-10T01:22:45.191Z,88.39
2023-03-10T01:23:45.174Z,86.85
2023-03-10T01:24:45.166Z,87.37
2023-03-10T01:25:45.152Z,86.81
2023-03-10T01:26:45.143Z,86.61
2023-03-10T01:27:45.147Z,87.43
2023-03-10T01:28:45.119Z,88.24
2023-03-10T01:29:45.113Z,88.29
2023-03-10T01:30:45.105Z,89.06
2023-03-10T01:31:45.177Z,87.37
2023-03-10T01:32:45.173Z,87.32
2023-03-10T01:33:45.070Z,87.94
2023-03-10T01:34:45.063Z,88.24
2023-03-10T01:35:45.118Z,88.45
2023-03-10T01:36:45.038Z,88.49
2023-03-10T01:37:45.040Z,89.11
2023-03-10T01:38:45.013Z,87.53
2023-03-10T01:39:45.073Z,87.22
2023-03-10T01:40:44.989Z,87.53
2023-03-10T01:41:44.980Z,88.35
2023-03-10T01:42:44.979Z,87.02
2023-03-10T01:43:44.965Z,87.63
2023-03-10T01:44:44.948Z,87.53
2023-03-10T01:45:44.944Z,88.04
2023-03-10T01:46:45.039Z,86.91
2023-03-10T01:47:44.935Z,87.63
2023-03-10T01:48:44.903Z,87.53
2023-03-10T01:49:44.914Z,87.32
2023-03-10T01:50:44.878Z,87.32
2023-03-10T01:51:44.874Z,86.61
2023-03-10T01:52:44.867Z,87.12
2023-03-10T01:53:44.847Z,87.02
2023-03-10T01:54:44.839Z,86.71
2023-03-10T01:55:44.829Z,87.73
2023-03-10T01:56:44.810Z,88.35
2023-03-10T01:57:44.862Z,87.53
2023-03-10T01:58:44.788Z,87.98
2023-03-10T01:59:44.787Z,88.24
2023-03-10T02:00:44.815Z,87.43
2023-03-10T02:01:44.825Z,88.18
2023-03-10T02:02:44.758Z,87.53
2023-03-10T02:03:44.740Z,87.73
2023-03-10T02:04:44.729Z,87.53
2023-03-10T02:05:44.713Z,88.96
2023-03-10T02:06:44.707Z,88.29
2023-03-10T02:07:44.726Z,88.24
2023-03-10T02:08:44.733Z,86.71
2023-03-10T02:09:44.674Z,87.43
2023-03-10T02:10:44.663Z,88.24
2023-03-10T02:11:44.649Z,88.56
2023-03-10T02:12:44.649Z,89.11
2023-03-10T02:13:44.637Z,88.49
2023-03-10T02:14:44.633Z,88.56
2023-03-10T02:15:44.613Z,88.59
2023-03-10T02:16:44.688Z,88.59
2023-03-10T02:17:44.688Z,88.70
2023-03-10T02:18:44.600Z,89.31
2023-03-10T02:19:44.567Z,88.80
2023-03-10T02:20:44.633Z,89.21
2023-03-10T02:21:44.575Z,89.21
2023-03-10T02:22:44.576Z,89.21
2023-03-10T02:23:51.408Z,88.59
2023-03-10T02:24:45.512Z,89.31
2023-03-10T02:25:44.501Z,88.59
2023-03-10T02:26:44.492Z,89.11
2023-03-10T02:27:44.608Z,88.90
2023-03-10T02:28:44.477Z,88.70
2023-03-10T02:29:58.034Z,90.44
2023-03-10T02:30:45.450Z,90.54
2023-03-10T02:31:44.505Z,91.36
2023-03-10T02:32:44.595Z,91.20
2023-03-10T02:33:44.425Z,90.79
2023-03-10T02:34:44.407Z,91.09
2023-03-10T02:35:44.411Z,91.26
2023-03-10T02:36:44.388Z,91.61
2023-03-10T02:37:44.378Z,91.46
2023-03-10T02:38:44.373Z,91.50
2023-03-10T02:39:44.353Z,91.91
2023-03-10T02:40:44.341Z,91.82
2023-03-10T02:41:45.544Z,92.63
2023-03-10T02:42:44.341Z,92.63
2023-03-10T02:43:44.386Z,91.91
2023-03-10T02:44:44.299Z,92.12
2023-03-10T02:45:44.336Z,92.49
2023-03-10T02:46:44.304Z,92.63
2023-03-10T02:47:44.264Z,92.63
2023-03-10T02:48:44.272Z,92.53
2023-03-10T02:49:44.247Z,92.74
2023-03-10T02:50:44.232Z,93.55
2023-03-10T02:51:44.233Z,93.25
2023-03-10T02:52:44.209Z,93.66
2023-03-10T02:53:44.206Z,93.76
2023-03-10T02:54:44.185Z,93.66
2023-03-10T02:55:44.184Z,93.39
2023-03-10T02:56:44.162Z,93.66
2023-03-10T02:57:44.162Z,93.80
2023-03-10T02:58:44.211Z,94.17
2023-03-10T02:59:44.134Z,94.52
2023-03-10T03:00:44.131Z,94.21
2023-03-10T03:01:44.108Z,94.58
2023-03-10T03:02:44.092Z,94.62
2023-03-10T03:03:44.141Z,94.11
2023-03-10T03:04:44.078Z,94.07
2023-03-10T03:05:44.062Z,94.62
2023-03-10T03:06:44.052Z,94.42
2023-03-10T03:07:44.038Z,94.73
2023-03-10T03:08:44.054Z,95.03
2023-03-10T03:09:44.022Z,94.93
2023-03-10T03:10:44.010Z,95.03
2023-03-10T03:11:43.994Z,95.03
2023-03-10T03:12:43.976Z,95.03
2023-03-10T03:13:43.978Z,94.62
2023-03-10T03:14:43.961Z,94.83
2023-03-10T03:15:44.060Z,94.83
2023-03-10T03:16:43.974Z,94.83
2023-03-10T03:17:43.923Z,95.03
2023-03-10T03:18:43.922Z,95.24
2023-03-10T03:19:43.904Z,95.44
2023-03-10T03:20:43.888Z,96.16
2023-03-10T03:21:43.881Z,96.10
2023-03-10T03:22:43.867Z,96.41
2023-03-10T03:23:43.870Z,95.95
2023-03-10T03:24:43.865Z,95.95
2023-03-10T03:25:43.834Z,96.62
2023-03-10T03:26:43.824Z,96.31
2023-03-10T03:27:43.811Z,96.31
2023-03-10T03:28:43.827Z,96.47
2023-03-10T03:29:43.791Z,97.03
2023-03-10T03:30:43.788Z,97.13
2023-03-10T03:31:43.861Z,97.23
2023-03-10T03:32:43.812Z,96.92
2023-03-10T03:33:43.750Z,96.82
2023-03-10T03:34:43.753Z,97.23
2023-03-10T03:35:43.774Z,96.62
2023-03-10T03:36:43.717Z,96.88
2023-03-10T03:37:43.712Z,96.78
2023-03-10T03:38:43.700Z,97.13
2023-03-10T03:39:43.781Z,96.92
2023-03-10T03:40:43.675Z,97.03
2023-03-10T03:41:43.664Z,96.31
2023-03-10T03:42:43.652Z,96.31
2023-03-10T03:43:43.642Z,96.26
2023-03-10T03:44:43.646Z,96.31
2023-03-10T03:45:43.859Z,96.31
2023-03-10T03:46:43.613Z,96.31
2023-03-10T03:47:43.601Z,96.31
2023-03-10T03:48:43.588Z,96.98
2023-03-10T03:49:43.583Z,96.47
2023-03-10T03:50:43.567Z,96.72
2023-03-10T03:51:43.556Z,96.26
2023-03-10T03:52:43.547Z,96.37
2023-03-10T03:53:43.547Z,96.57
2023-03-10T03:54:43.534Z,96.31
2023-03-10T03:55:43.525Z,96.10
2023-03-10T03:56:43.505Z,95.65
2023-03-10T03:57:43.496Z,95.90
2023-03-10T03:58:43.489Z,95.86
2023-03-10T03:59:43.483Z,96.06
2023-03-10T04:00:43.463Z,96.51
2023-03-10T04:01:43.454Z,96.47
2023-03-10T04:02:43.491Z,96.16
2023-03-10T04:03:43.472Z,95.65
2023-03-10T04:04:43.435Z,95.95
2023-03-10T04:05:43.547Z,95.86
2023-03-10T04:06:43.395Z,96.06
2023-03-10T04:07:43.389Z,96.00
2023-03-10T04:08:43.378Z,95.75
2023-03-10T04:09:43.370Z,95.75
2023-03-10T04:10:43.355Z,96.37
2023-03-10T04:11:43.338Z,96.06
2023-03-10T04:12:43.339Z,95.65
2023-03-10T04:13:43.314Z,95.95
2023-03-10T04:14:43.324Z,96.67
2023-03-10T04:15:43.310Z,96.31
2023-03-10T04:16:43.289Z,95.95
2023-03-10T04:17:43.281Z,96.20
2023-03-10T04:18:43.264Z,96.31
2023-03-10T04:19:44.696Z,95.49
2023-03-10T04:20:43.242Z,95.86
2023-03-10T04:21:43.233Z,95.44
2023-03-10T04:22:43.225Z,94.93
2023-03-10T04:23:43.208Z,95.44
2023-03-10T04:24:43.212Z,95.34
2023-03-10T04:25:43.187Z,94.93
2023-03-10T04:26:43.202Z,94.21
2023-03-10T04:27:43.191Z,94.32
2023-03-10T04:28:43.160Z,94.32
2023-03-10T04:29:43.155Z,93.90
2023-03-10T04:30:43.136Z,94.17
2023-03-10T04:31:48.305Z,94.62
2023-03-10T04:32:44.191Z,94.21
2023-03-10T04:33:43.103Z,94.52
2023-03-10T04:34:43.103Z,94.93
2023-03-10T04:35:43.123Z,94.73
2023-03-10T04:36:43.068Z,94.21
2023-03-10T04:37:43.057Z,95.03
2023-03-10T04:38:43.069Z,95.14
2023-03-10T04:39:43.082Z,93.90
2023-03-10T04:40:43.025Z,95.14
2023-03-10T04:41:43.047Z,94.62
2023-03-10T04:42:43.026Z,95.14
2023-03-10T04:43:45.068Z,94.11
2023-03-10T04:44:43.104Z,94.42
2023-03-10T04:45:43.023Z,94.32
2023-03-10T04:46:43.110Z,94.52
2023-03-10T04:47:42.959Z,94.11
2023-03-10T04:48:42.954Z,94.07
2023-03-10T04:49:42.939Z,94.27
2023-03-10T04:50:42.971Z,94.07
2023-03-10T04:51:42.916Z,94.01
2023-03-10T04:52:42.899Z,94.11
2023-03-10T04:53:42.892Z,93.90
2023-03-10T04:54:42.888Z,93.76
2023-03-10T04:55:42.862Z,93.96
2023-03-10T04:56:42.866Z,93.96
2023-03-10T04:57:42.843Z,93.45
2023-03-10T04:58:42.843Z,93.76
2023-03-10T04:59:42.836Z,94.07
2023-03-10T05:00:56.464Z,94.07
2023-03-10T05:01:43.905Z,94.27
2023-03-10T05:02:42.788Z,94.27
2023-03-10T05:03:42.782Z,94.01
2023-03-10T05:04:42.879Z,93.70
2023-03-10T05:05:42.754Z,93.80
2023-03-10T05:06:42.748Z,93.66
2023-03-10T05:07:42.732Z,93.60
2023-03-10T05:08:42.721Z,94.11
2023-03-10T05:09:42.745Z,93.70
2023-03-10T05:10:42.705Z,93.70
2023-03-10T05:11:42.687Z,93.29
2023-03-10T05:12:42.684Z,93.49
2023-03-10T05:13:42.679Z,93.60
2023-03-10T05:14:42.684Z,93.60
2023-03-10T05:15:42.747Z,93.49
2023-03-10T05:16:42.632Z,93.19
2023-03-10T05:17:42.619Z,92.68
2023-03-10T05:18:42.611Z,93.19
2023-03-10T05:19:42.609Z,92.78
2023-03-10T05:20:42.583Z,93.08
2023-03-10T05:21:42.571Z,92.78
2023-03-10T05:22:42.571Z,93.19
2023-03-10T05:23:42.547Z,92.78
2023-03-10T05:24:42.555Z,92.78
2023-03-10T05:25:42.527Z,93.35
2023-03-10T05:26:42.535Z,93.39
2023-03-10T05:27:42.514Z,92.98
2023-03-10T05:28:42.497Z,92.78
2023-03-10T05:29:42.510Z,93.08
2023-03-10T05:30:42.480Z,93.25
2023-03-10T05:31:42.587Z,93.15
2023-03-10T05:32:42.545Z,92.57
2023-03-10T05:33:42.443Z,92.83
2023-03-10T05:34:42.458Z,92.63
2023-03-10T05:35:42.430Z,92.74
2023-03-10T05:36:42.428Z,92.98
2023-03-10T05:37:42.409Z,93.19
2023-03-10T05:38:42.412Z,93.29
2023-03-10T05:39:42.387Z,92.68
2023-03-10T05:40:42.373Z,92.12
2023-03-10T05:41:42.355Z,92.63
2023-03-10T05:42:42.349Z,93.08
2023-03-10T05:43:42.335Z,92.02
2023-03-10T05:44:42.344Z,92.27
2023-03-10T05:45:42.307Z,92.12
2023-03-10T05:46:42.352Z,92.43
2023-03-10T05:47:42.312Z,92.83
2023-03-10T05:48:42.287Z,92.78
2023-03-10T05:49:42.278Z,92.57
2023-03-10T05:50:42.265Z,92.88
2023-03-10T05:51:42.252Z,92.98
2023-03-10T05:52:42.248Z,93.15
2023-03-10T05:53:42.231Z,92.63
2023-03-10T05:54:42.229Z,92.83
2023-03-10T05:55:42.209Z,93.29
2023-03-10T05:56:42.206Z,92.68
2023-03-10T05:57:42.238Z,92.78
2023-03-10T05:58:42.177Z,93.19
2023-03-10T05:59:42.325Z,93.29
2023-03-10T06:00:42.155Z,93.08
2023-03-10T06:01:42.143Z,92.74
2023-03-10T06:02:42.179Z,92.78
2023-03-10T06:03:42.293Z,92.63
2023-03-10T06:04:42.156Z,92.98
2023-03-10T06:05:42.110Z,93.04
2023-03-10T06:06:42.105Z,93.08
2023-03-10T06:07:42.088Z,93.19
2023-03-10T06:08:42.087Z,92.43
2023-03-10T06:09:42.077Z,92.63
2023-03-10T06:10:42.057Z,92.63
2023-03-10T06:11:42.066Z,92.68
2023-03-10T06:12:42.071Z,92.78
2023-03-10T06:13:43.460Z,93.08
2023-03-10T06:16:12.208Z,93.70
2023-03-10T06:17:08.230Z,93.39
2023-03-10T06:18:08.190Z,93.08
2023-03-10T06:19:08.173Z,92.63
2023-03-10T06:20:08.172Z,92.78
2023-03-10T06:21:08.160Z,92.68
2023-03-10T06:22:08.168Z,91.82
2023-03-10T06:23:08.164Z,92.22
2023-03-10T06:24:08.170Z,91.91
2023-03-10T06:25:08.251Z,91.91
2023-03-10T06:26:08.102Z,92.78
2023-03-10T06:27:08.113Z,92.12
2023-03-10T06:28:09.743Z,91.40
2023-03-10T06:29:08.072Z,91.61
2023-03-10T06:30:08.079Z,91.09
2023-03-10T06:31:08.049Z,91.40
2023-03-10T06:32:08.081Z,90.79
2023-03-10T06:33:08.026Z,90.99
2023-03-10T06:34:08.027Z,91.50
2023-03-10T06:35:08.023Z,91.71
2023-03-10T06:36:08.065Z,90.69
2023-03-10T06:37:07.987Z,90.79
2023-03-10T06:38:07.971Z,90.48
2023-03-10T06:39:07.961Z,90.89
2023-03-10T06:40:07.979Z,91.30
2023-03-10T06:41:07.946Z,91.20
2023-03-10T06:42:07.944Z,90.89
2023-03-10T06:43:07.938Z,91.30
2023-03-10T06:44:07.920Z,91.82
2023-03-10T06:45:07.935Z,91.20
2023-03-10T06:46:07.938Z,90.99
2023-03-10T06:47:07.897Z,91.40
2023-03-10T06:48:07.868Z,90.69
2023-03-10T06:49:07.864Z,91.71
2023-03-10T06:50:07.867Z,90.69
2023-03-10T06:51:07.842Z,90.99
2023-03-10T06:52:07.836Z,90.58
2023-03-10T06:53:07.819Z,90.44
2023-03-10T06:54:07.835Z,90.69
2023-03-10T06:55:07.821Z,91.16
2023-03-10T06:56:07.810Z,91.50
2023-03-10T06:57:07.814Z,90.23
2023-03-10T06:58:07.779Z,90.64
2023-03-10T06:59:07.765Z,90.58
2023-03-10T07:00:07.786Z,90.95
2023-03-10T07:01:07.818Z,90.99
2023-03-10T07:02:07.786Z,90.58
2023-03-10T07:03:07.742Z,90.84
2023-03-10T07:04:07.719Z,90.48
2023-03-10T07:05:07.835Z,89.66
2023-03-10T07:06:07.755Z,89.83
2023-03-10T07:07:07.689Z,90.54
2023-03-10T07:08:07.703Z,90.03
2023-03-10T07:09:07.644Z,89.06
2023-03-10T07:10:08.377Z,88.56
2023-03-10T07:11:07.635Z,88.56
2023-03-10T07:12:07.614Z,88.62
2023-03-10T07:13:07.634Z,88.06
2023-03-10T07:14:07.587Z,88.00
2023-03-10T07:15:07.697Z,88.47
2023-03-10T07:16:07.564Z,87.14
2023-03-10T07:17:07.682Z,88.37
2023-03-10T07:18:07.548Z,87.96
2023-03-10T07:19:07.552Z,86.94
2023-03-10T07:20:07.537Z,87.38
2023-03-10T07:21:07.519Z,86.67
2023-03-10T07:22:08.611Z,88.06
2023-03-10T07:23:07.498Z,88.06
2023-03-10T07:24:07.517Z,87.65
2023-03-10T07:25:08.628Z,87.55
2023-03-10T07:26:07.494Z,88.51
2023-03-10T07:27:07.469Z,87.49
2023-03-10T07:28:07.457Z,88.51
2023-03-10T07:29:07.504Z,88.68
2023-03-10T07:30:07.478Z,88.10
2023-03-10T07:31:07.496Z,88.41
2023-03-10T07:32:07.413Z,88.71
2023-03-10T07:33:07.384Z,89.03
2023-03-10T07:34:07.378Z,88.51
2023-03-10T07:35:07.376Z,88.92
2023-03-10T07:36:07.589Z,87.18
2023-03-10T07:37:07.335Z,87.24
2023-03-10T07:38:07.328Z,88.47
2023-03-10T07:39:07.317Z,87.76
2023-03-10T07:40:07.317Z,88.68
2023-03-10T07:41:07.294Z,88.68
2023-03-10T07:42:07.309Z,88.06
2023-03-10T07:43:07.290Z,86.73
2023-03-10T07:44:07.285Z,87.00
2023-03-10T07:45:07.327Z,86.94
2023-03-10T07:46:07.275Z,86.59
2023-03-10T07:47:07.393Z,86.38
2023-03-10T07:48:07.245Z,86.59
2023-03-10T07:49:07.209Z,86.79
2023-03-10T07:50:07.211Z,85.77
2023-03-10T07:51:07.224Z,86.18
2023-03-10T07:52:07.196Z,86.18
2023-03-10T07:53:07.185Z,86.69
2023-03-10T07:54:07.158Z,85.47
2023-03-10T07:55:07.159Z,86.38
2023-03-10T07:56:07.171Z,86.38
2023-03-10T07:57:07.134Z,85.77
2023-03-10T07:58:07.119Z,85.12
2023-03-10T07:59:07.173Z,85.08
2023-03-10T08:00:07.174Z,84.47
2023-03-10T08:01:07.126Z,85.08
2023-03-10T08:02:08.744Z,85.55
2023-03-10T08:03:07.101Z,83.57
2023-03-10T08:04:07.187Z,84.90
2023-03-10T08:05:07.162Z,85.82
2023-03-10T08:06:07.062Z,84.31
2023-03-10T08:07:07.043Z,84.17
2023-03-10T08:08:07.063Z,84.98
2023-03-10T08:09:07.025Z,81.93
2023-03-10T08:10:07.052Z,80.84
2023-03-10T08:11:07.056Z,80.98
2023-03-10T08:12:06.972Z,80.82
2023-03-10T08:13:07.005Z,82.24
2023-03-10T08:14:06.990Z,82.00
2023-03-10T08:15:07.017Z,82.21
2023-03-10T08:16:07.066Z,81.73
2023-03-10T08:17:06.913Z,83.98
2023-03-10T08:18:06.910Z,82.28
2023-03-10T08:19:06.987Z,82.75
2023-03-10T08:20:06.900Z,82.45
2023-03-10T08:21:06.906Z,83.84
2023-03-10T08:22:06.871Z,81.90
2023-03-10T08:23:06.933Z,82.51
2023-03-10T08:24:06.853Z,82.10
2023-03-10T08:25:06.834Z,82.00
2023-03-10T08:26:06.850Z,81.59
2023-03-10T08:27:06.829Z,81.70
2023-03-10T08:28:06.825Z,80.57
2023-03-10T08:29:06.838Z,80.07
2023-03-10T08:30:06.772Z,81.70
2023-03-10T08:31:07.714Z,82.31
2023-03-10T08:32:06.833Z,81.39
2023-03-10T08:33:06.856Z,81.70
2023-03-10T08:34:06.754Z,81.94
2023-03-10T08:35:06.755Z,82.45
2023-03-10T08:36:06.821Z,82.69
2023-03-10T08:37:06.716Z,82.69
2023-03-10T08:38:06.698Z,83.20
2023-03-10T08:39:06.710Z,81.87
2023-03-10T08:40:06.671Z,82.79
2023-03-10T08:41:06.695Z,81.77
2023-03-10T08:42:06.689Z,82.18
2023-03-10T08:43:06.648Z,81.46
2023-03-10T08:44:06.622Z,82.08
2023-03-10T08:45:08.600Z,81.57
2023-03-10T08:46:08.465Z,81.67
2023-03-10T08:47:06.676Z,81.57
2023-03-10T08:48:06.594Z,81.98
2023-03-10T08:49:06.624Z,82.79
2023-03-10T08:50:06.568Z,82.96
2023-03-10T08:51:06.565Z,82.35
2023-03-10T08:52:06.675Z,80.88
2023-03-10T08:53:06.548Z,79.96
2023-03-10T08:54:06.535Z,81.29
2023-03-10T08:55:06.515Z,81.66
2023-03-10T08:56:06.537Z,81.70
2023-03-10T08:57:06.501Z,82.47
2023-03-10T08:58:06.479Z,79.75
2023-03-10T08:59:06.477Z,81.66
2023-03-10T09:00:06.476Z,80.88
2023-03-10T09:01:06.488Z,79.82
2023-03-10T09:02:06.590Z,79.45
2023-03-10T09:03:06.468Z,79.75
2023-03-10T09:04:06.434Z,82.31
2023-03-10T09:05:06.420Z,79.25
2023-03-10T09:06:06.414Z,80.47
2023-03-10T09:07:06.396Z,81.70
2023-03-10T09:08:06.415Z,80.13
2023-03-10T09:09:06.373Z,81.25
2023-03-10T09:10:06.361Z,79.82
2023-03-10T09:11:06.367Z,79.99
2023-03-10T09:12:06.411Z,80.46
2023-03-10T09:13:13.677Z,80.36
2023-03-10T09:14:07.356Z,76.90
2023-03-10T09:15:06.304Z,78.42
2023-03-10T09:16:06.466Z,77.91
2023-03-10T09:17:06.296Z,79.10
2023-03-10T09:18:06.276Z,76.72
2023-03-10T09:19:06.271Z,76.34
2023-03-10T09:20:06.256Z,74.76
2023-03-10T09:21:06.295Z,76.07
2023-03-10T09:22:06.260Z,77.12
2023-03-10T09:23:06.254Z,75.23
2023-03-10T09:24:06.214Z,74.52
2023-03-10T09:25:06.194Z,74.85
2023-03-10T09:26:06.194Z,75.81
2023-03-10T09:27:06.181Z,77.23
2023-03-10T09:28:06.204Z,76.01
2023-03-10T09:29:06.145Z,75.23
2023-03-10T09:30:06.154Z,75.88
2023-03-10T09:31:06.146Z,77.40
2023-03-10T09:32:08.603Z,77.06
2023-03-10T09:33:06.147Z,77.51
2023-03-10T09:34:06.095Z,77.10
2023-03-10T09:35:06.098Z,77.64
2023-03-10T09:36:07.448Z,79.48
2023-03-10T09:37:08.415Z,78.05
2023-03-10T09:38:06.046Z,76.93
2023-03-10T09:39:06.107Z,76.90
2023-03-10T09:40:06.462Z,77.06
2023-03-10T09:41:08.422Z,76.35
2023-03-10T09:42:06.010Z,76.62
2023-03-10T09:43:06.005Z,75.84
2023-03-10T09:44:05.990Z,74.52
2023-03-10T09:45:05.974Z,74.82
2023-03-10T09:46:06.009Z,74.04
2023-03-10T09:47:05.998Z,73.33
2023-03-10T09:48:05.944Z,71.67
2023-03-10T09:49:05.947Z,71.16
2023-03-10T09:50:05.917Z,72.08
2023-03-10T09:51:05.925Z,76.27
2023-03-10T09:52:05.898Z,71.67
2023-03-10T09:53:05.899Z,69.78
2023-03-10T09:54:05.882Z,70.04
2023-03-10T09:55:05.880Z,73.16
2023-03-10T09:56:05.886Z,74.07
2023-03-10T09:57:05.852Z,74.41
2023-03-10T09:58:05.858Z,74.01
2023-03-10T09:59:05.832Z,74.65
2023-03-10T10:00:05.805Z,75.33
2023-03-10T10:01:05.802Z,73.50
2023-03-10T10:02:05.806Z,74.35
2023-03-10T10:03:08.609Z,75.57
2023-03-10T10:04:05.963Z,75.53
2023-03-10T10:05:05.803Z,73.50
2023-03-10T10:06:05.745Z,73.30
2023-03-10T10:07:05.752Z,74.62
2023-03-10T10:08:05.737Z,74.76
2023-03-10T10:09:06.043Z,76.62
2023-03-10T10:10:05.770Z,76.42
2023-03-10T10:11:06.609Z,76.04
2023-03-10T10:12:05.690Z,77.03
2023-03-10T10:13:05.681Z,77.48
2023-03-10T10:14:06.245Z,78.97
2023-03-10T10:15:05.664Z,78.09
2023-03-10T10:16:24.359Z,78.77
2023-03-10T10:17:06.739Z,79.07
2023-03-10T10:18:17.972Z,78.97
2023-03-10T10:19:06.667Z,78.05
2023-03-10T10:20:05.601Z,79.75
2023-03-10T10:21:05.599Z,78.56
2023-03-10T10:22:05.603Z,78.05
2023-03-10T10:23:05.614Z,77.55
2023-03-10T10:24:05.590Z,78.09
2023-03-10T10:25:08.003Z,79.62
2023-03-10T10:26:05.560Z,78.09
2023-03-10T10:27:05.551Z,77.37
2023-03-10T10:28:05.519Z,78.19
2023-03-10T10:29:05.521Z,79.72
2023-03-10T10:30:05.504Z,79.11
2023-03-10T10:31:05.538Z,77.95
2023-03-10T10:32:05.517Z,77.40
2023-03-10T10:33:05.485Z,77.44
2023-03-10T10:34:05.462Z,77.58
2023-03-10T10:35:05.450Z,77.68
2023-03-10T10:36:05.526Z,77.48
2023-03-10T10:37:05.437Z,77.68
2023-03-10T10:38:06.971Z,78.12
2023-03-10T10:39:05.413Z,77.81
2023-03-10T10:40:06.146Z,77.10
2023-03-10T10:41:07.565Z,75.95
2023-03-10T10:42:05.395Z,75.33
2023-03-10T10:43:05.394Z,75.54
2023-03-10T10:44:05.367Z,74.48
2023-03-10T10:45:05.372Z,74.45
2023-03-10T10:46:05.364Z,74.18
2023-03-10T10:47:05.340Z,74.69
2023-03-10T10:48:05.320Z,75.57
2023-03-10T10:49:05.316Z,74.35
2023-03-10T10:50:05.298Z,74.85
2023-03-10T10:51:05.288Z,73.02
2023-03-10T10:52:05.303Z,72.17
2023-03-10T10:53:05.276Z,74.15
2023-03-10T10:54:05.257Z,72.17
2023-03-10T10:55:05.255Z,73.50
2023-03-10T10:56:05.235Z,73.60
2023-03-10T10:57:05.240Z,74.41
2023-03-10T10:58:05.217Z,74.45
2023-03-10T10:59:05.227Z,74.82
2023-03-10T11:00:05.196Z,74.72
2023-03-10T11:01:05.239Z,72.96
2023-03-10T11:02:05.208Z,72.25
2023-03-10T11:03:05.176Z,73.36
2023-03-10T11:04:05.161Z,69.23
2023-03-10T11:05:05.180Z,68.35
2023-03-10T11:06:05.134Z,66.40
2023-03-10T11:07:05.117Z,67.58
2023-03-10T11:08:05.156Z,65.93
2023-03-10T11:09:06.494Z,65.22
2023-03-10T11:10:05.080Z,65.29
2023-03-10T11:11:05.072Z,65.29
2023-03-10T11:12:05.165Z,63.98
2023-03-10T11:13:05.720Z,65.19
2023-03-10T11:14:05.036Z,64.70
2023-03-10T11:15:05.045Z,61.56
2023-03-10T11:16:05.098Z,64.12
2023-03-10T11:17:05.012Z,64.79
2023-03-10T11:18:05.029Z,65.43
2023-03-10T11:19:04.989Z,63.38
2023-03-10T11:20:05.050Z,62.27
2023-03-10T11:21:04.986Z,62.07
2023-03-10T11:22:04.992Z,62.67
2023-03-10T11:23:04.957Z,63.02
2023-03-10T11:24:04.929Z,61.92
2023-03-10T11:25:04.933Z,61.49
2023-03-10T11:26:04.910Z,61.29
2023-03-10T11:27:04.903Z,59.66
2023-03-10T11:28:04.899Z,56.42
2023-03-10T11:29:04.939Z,59.77
2023-03-10T11:30:04.878Z,59.77
2023-03-10T11:31:04.893Z,59.40
2023-03-10T11:32:04.845Z,61.73
2023-03-10T11:33:04.851Z,61.59
2023-03-10T11:34:04.823Z,61.56
2023-03-10T11:35:04.818Z,63.67
2023-03-10T11:36:04.844Z,63.13
2023-03-10T11:37:04.817Z,63.17
2023-03-10T11:38:04.810Z,64.37
2023-03-10T11:39:04.780Z,65.95
2023-03-10T11:40:04.965Z,68.22
2023-03-10T11:41:04.766Z,68.86
2023-03-10T11:42:04.745Z,68.18
2023-03-10T11:43:04.752Z,68.52
2023-03-10T11:44:04.723Z,69.26
2023-03-10T11:45:04.739Z,70.10
2023-03-10T11:46:04.747Z,70.01
2023-03-10T11:47:04.695Z,70.62
2023-03-10T11:48:04.696Z,70.41
2023-03-10T11:49:04.691Z,72.01
2023-03-10T11:50:04.655Z,69.90
2023-03-10T11:51:04.656Z,71.53
2023-03-10T11:52:04.639Z,70.07
2023-03-10T11:53:05.479Z,70.58
2023-03-10T11:54:04.612Z,71.50
2023-03-10T11:55:04.601Z,69.87
2023-03-10T11:56:04.589Z,69.67
2023-03-10T11:57:04.579Z,69.39
2023-03-10T11:58:04.577Z,69.29
2023-03-10T11:59:04.562Z,69.87
2023-03-10T12:00:04.544Z,68.88
2023-03-10T12:01:04.532Z,67.10
2023-03-10T12:02:04.522Z,65.96
2023-03-10T12:03:04.530Z,63.78
2023-03-10T12:04:04.518Z,63.07
2023-03-10T12:05:05.321Z,62.37
2023-03-10T12:06:04.482Z,64.67
2023-03-10T12:07:04.479Z,65.70
2023-03-10T12:08:04.469Z,69.46
2023-03-10T12:09:04.462Z,68.35
2023-03-10T12:10:05.805Z,70.01
2023-03-10T12:11:04.529Z,69.67
2023-03-10T12:12:04.410Z,73.16
2023-03-10T12:13:04.428Z,75.74
2023-03-10T12:14:04.407Z,76.70
2023-03-10T12:15:04.381Z,77.45
2023-03-10T12:16:04.410Z,79.08
2023-03-10T12:17:04.359Z,78.88
2023-03-10T12:18:04.370Z,79.43
2023-03-10T12:19:04.750Z,81.57
2023-03-10T12:20:04.346Z,80.04
2023-03-10T12:21:04.321Z,76.81
2023-03-10T12:22:04.309Z,77.56
2023-03-10T12:23:04.355Z,79.80
2023-03-10T12:24:04.317Z,79.77
2023-03-10T12:25:04.277Z,78.13
2023-03-10T12:26:04.275Z,77.38
2023-03-10T12:27:04.262Z,79.63
2023-03-10T12:28:04.241Z,79.52
2023-03-10T12:29:04.251Z,78.91
2023-03-10T12:30:04.252Z,80.10
2023-03-10T12:31:04.297Z,82.04
2023-03-10T12:32:04.222Z,81.01
2023-03-10T12:33:04.196Z,76.39
2023-03-10T12:34:04.199Z,78.92
2023-03-10T12:35:04.177Z,76.41
2023-03-10T12:36:05.383Z,74.01
2023-03-10T12:37:05.298Z,79.30
2023-03-10T12:38:26.373Z,72.38
2023-03-10T12:39:05.272Z,70.32
2023-03-10T12:40:05.311Z,68.73
2023-03-10T12:41:05.270Z,68.02
2023-03-10T12:42:05.309Z,69.44
2023-03-10T12:43:05.231Z,70.38
2023-03-10T12:44:05.269Z,74.93
2023-03-10T12:45:05.217Z,76.28
2023-03-10T12:46:05.243Z,79.72
2023-03-10T12:47:05.239Z,80.13
2023-03-10T12:48:05.219Z,80.57
2023-03-10T12:49:05.188Z,81.66
2023-03-10T12:50:05.363Z,82.27
2023-03-10T12:51:05.151Z,81.25
2023-03-10T12:52:05.145Z,80.64
2023-03-10T12:53:05.138Z,81.86
2023-03-10T12:54:05.151Z,83.39
2023-03-10T12:55:05.116Z,82.71
2023-03-10T12:56:05.098Z,85.27
2023-03-10T12:57:05.152Z,84.96